Details for SAS (Scandinavian Airlines) at ESSA




Go Back


Latest METAR
Local Time

ESSA 232350Z 01005KT CAVOK M11/M12 Q1035 R01L/610172 R01R/610164 R08/////// NOSIG

24/02/2018, 01:18:48

Description
Results
SAS (Scandinavian Airlines) Logo
Number of Pilots based at ESSA
1 Pilots Based here
Number of SAS (Scandinavian Airlines) Flights Departed from ESSA
12 Flights Departed
Number of SAS (Scandinavian Airlines) Flights Arrived at ESSA
8 Flights Arrived
Number of SAS (Scandinavian Airlines) Schedules Departing from ESSA
430 Schedules
Number of SAS (Scandinavian Airlines) Schedules Arriving at ESSA
402 Schedules
Number of SAS (Scandinavian Airlines) Schedules Departing from ESSA availible today
71 Schedules Today
Number of SAS (Scandinavian Airlines) Schedules Arriving at ESSA availible today
72 Schedules Today
Average Landing Rate at ESSA
-224 fpm
SAS (Scandinavian Airlines) Average Landing Rate at ESSA
-159 fpm
Total Fuel Purchased at ESSA by SAS (Scandinavian Airlines)
43,306.28 kgs / 95,473.02 lbs

Pilots Based at ESSA


Pilot ID
Pilot Name
Pilot Rank
No. of Flights
No. of Flying Hours
David Kurth
4
6.08
Content